sensor_id;sensor_type;location;lat;lon;timestamp;pressure;altitude;pressure_sealevel;temperature;humidity
39613;BME280;25303;48.896;13.342;2023-04-09T00:00:00;93304.47;;;3.13;65.92
39613;BME280;25303;48.896;13.342;2023-04-09T00:02:52;93307.94;;;3.12;65.85
39613;BME280;25303;48.896;13.342;2023-04-09T00:05:38;93299.31;;;3.14;65.89
39613;BME280;25303;48.896;13.342;2023-04-09T00:08:22;93302.53;;;3.16;65.69
39613;BME280;25303;48.896;13.342;2023-04-09T00:11:05;93298.38;;;3.15;66.03
39613;BME280;25303;48.896;13.342;2023-04-09T00:13:48;93288.13;;;3.17;65.94
39613;BME280;25303;48.896;13.342;2023-04-09T00:16:31;93289.03;;;3.16;65.96
39613;BME280;25303;48.896;13.342;2023-04-09T00:19:14;93290.97;;;3.12;66.09
39613;BME280;25303;48.896;13.342;2023-04-09T00:21:57;93289.63;;;3.07;66.41
39613;BME280;25303;48.896;13.342;2023-04-09T00:24:41;93293.09;;;3.06;66.39
39613;BME280;25303;48.896;13.342;2023-04-09T00:27:24;93292.28;;;3.05;66.38
39613;BME280;25303;48.896;13.342;2023-04-09T00:30:08;93290.63;;;3.04;66.36
39613;BME280;25303;48.896;13.342;2023-04-09T00:32:52;93286.28;;;3.06;66.44
39613;BME280;25303;48.896;13.342;2023-04-09T00:35:34;93293.69;;;3.09;66.46
39613;BME280;25303;48.896;13.342;2023-04-09T00:38:17;93296.06;;;3.12;66.37
39613;BME280;25303;48.896;13.342;2023-04-09T00:41:02;93295.03;;;3.15;66.43
39613;BME280;25303;48.896;13.342;2023-04-09T00:43:45;93295.94;;;3.14;66.91
39613;BME280;25303;48.896;13.342;2023-04-09T00:46:28;93290.13;;;3.12;66.93
39613;BME280;25303;48.896;13.342;2023-04-09T00:49:12;93298.47;;;3.14;66.85
39613;BME280;25303;48.896;13.342;2023-04-09T00:51:55;93293.19;;;3.17;67.18
39613;BME280;25303;48.896;13.342;2023-04-09T00:54:38;93307.25;;;3.23;67.07
39613;BME280;25303;48.896;13.342;2023-04-09T00:57:22;93305.31;;;3.26;67.07
39613;BME280;25303;48.896;13.342;2023-04-09T01:00:06;93306.00;;;3.28;66.88
39613;BME280;25303;48.896;13.342;2023-04-09T01:02:50;93312.66;;;3.31;66.82
39613;BME280;25303;48.896;13.342;2023-04-09T01:05:40;93312.66;;;3.31;66.98
39613;BME280;25303;48.896;13.342;2023-04-09T01:08:32;93316.72;;;3.33;66.78
39613;BME280;25303;48.896;13.342;2023-04-09T01:11:29;93309.09;;;3.33;66.85
39613;BME280;25303;48.896;13.342;2023-04-09T01:14:20;93318.22;;;3.36;66.91
39613;BME280;25303;48.896;13.342;2023-04-09T01:17:11;93313.75;;;3.40;66.85
39613;BME280;25303;48.896;13.342;2023-04-09T01:20:00;93315.19;;;3.44;66.82
39613;BME280;25303;48.896;13.342;2023-04-09T01:22:56;93307.34;;;3.47;66.97
39613;BME280;25303;48.896;13.342;2023-04-09T01:25:50;93307.22;;;3.48;66.95
39613;BME280;25303;48.896;13.342;2023-04-09T01:28:42;93302.97;;;3.49;67.00
39613;BME280;25303;48.896;13.342;2023-04-09T01:31:30;93308.84;;;3.49;66.91
39613;BME280;25303;48.896;13.342;2023-04-09T01:34:15;93297.88;;;3.49;67.18
39613;BME280;25303;48.896;13.342;2023-04-09T01:36:59;93293.69;;;3.48;67.20
39613;BME280;25303;48.896;13.342;2023-04-09T01:39:44;93299.50;;;3.50;67.32
39613;BME280;25303;48.896;13.342;2023-04-09T01:42:28;93292.78;;;3.49;67.51
39613;BME280;25303;48.896;13.342;2023-04-09T01:45:13;93290.13;;;3.50;67.52
39613;BME280;25303;48.896;13.342;2023-04-09T01:47:57;93294.41;;;3.50;67.34
39613;BME280;25303;48.896;13.342;2023-04-09T01:50:40;93290.84;;;3.53;67.26
39613;BME280;25303;48.896;13.342;2023-04-09T01:53:23;93288.22;;;3.54;67.30
39613;BME280;25303;48.896;13.342;2023-04-09T01:56:08;93298.28;;;3.56;67.36
39613;BME280;25303;48.896;13.342;2023-04-09T01:58:52;93285.44;;;3.57;67.16
39613;BME280;25303;48.896;13.342;2023-04-09T02:01:42;93290.44;;;3.59;67.13
39613;BME280;25303;48.896;13.342;2023-04-09T02:04:31;93287.06;;;3.58;67.11
39613;BME280;25303;48.896;13.342;2023-04-09T02:07:23;93292.06;;;3.60;66.98
39613;BME280;25303;48.896;13.342;2023-04-09T02:10:10;93292.06;;;3.60;67.10
39613;BME280;25303;48.896;13.342;2023-04-09T02:12:55;93294.59;;;3.60;66.88
39613;BME280;25303;48.896;13.342;2023-04-09T02:15:40;93297.03;;;3.61;66.81
39613;BME280;25303;48.896;13.342;2023-04-09T02:18:26;93293.78;;;3.59;66.68
39613;BME280;25303;48.896;13.342;2023-04-09T02:21:09;93299.69;;;3.60;66.63
39613;BME280;25303;48.896;13.342;2023-04-09T02:23:54;93304.41;;;3.53;66.91
39613;BME280;25303;48.896;13.342;2023-04-09T02:26:37;93311.00;;;3.56;66.85
39613;BME280;25303;48.896;13.342;2023-04-09T02:29:20;93304.16;;;3.56;66.78
39613;BME280;25303;48.896;13.342;2023-04-09T02:32:04;93296.53;;;3.56;66.75
39613;BME280;25303;48.896;13.342;2023-04-09T02:34:48;93298.38;;;3.54;67.06
39613;BME280;25303;48.896;13.342;2023-04-09T02:37:31;93294.22;;;3.53;66.93
39613;BME280;25303;48.896;13.342;2023-04-09T02:40:14;93300.22;;;3.52;66.98
39613;BME280;25303;48.896;13.342;2023-04-09T02:42:57;93289.00;;;3.55;66.94
39613;BME280;25303;48.896;13.342;2023-04-09T02:45:40;93298.28;;;3.56;66.97
39613;BME280;25303;48.896;13.342;2023-04-09T02:48:23;93291.88;;;3.50;67.17
39613;BME280;25303;48.896;13.342;2023-04-09T02:51:08;93301.22;;;3.49;67.21
39613;BME280;25303;48.896;13.342;2023-04-09T02:53:51;93295.34;;;3.49;67.29
39613;BME280;25303;48.896;13.342;2023-04-09T02:56:34;93294.50;;;3.48;67.04
39613;BME280;25303;48.896;13.342;2023-04-09T02:59:17;93296.13;;;3.49;67.22
39613;BME280;25303;48.896;13.342;2023-04-09T03:02:00;93293.59;;;3.49;67.37
39613;BME280;25303;48.896;13.342;2023-04-09T03:04:43;93290.03;;;3.52;67.34
39613;BME280;25303;48.896;13.342;2023-04-09T03:07:28;93291.56;;;3.55;67.25
39613;BME280;25303;48.896;13.342;2023-04-09T03:10:11;93294.69;;;3.58;67.09
39613;BME280;25303;48.896;13.342;2023-04-09T03:12:54;93290.63;;;3.56;67.48
39613;BME280;25303;48.896;13.342;2023-04-09T03:15:37;93286.84;;;3.61;67.42
39613;BME280;25303;48.896;13.342;2023-04-09T03:18:20;93287.44;;;3.65;67.12
39613;BME280;25303;48.896;13.342;2023-04-09T03:21:06;93278.91;;;3.66;67.24
39613;BME280;25303;48.896;13.342;2023-04-09T03:23:55;93274.72;;;3.65;67.13
39613;BME280;25303;48.896;13.342;2023-04-09T03:26:38;93276.47;;;3.64;67.00
39613;BME280;25303;48.896;13.342;2023-04-09T03:29:21;93271.69;;;3.60;66.83
39613;BME280;25303;48.896;13.342;2023-04-09T03:32:04;93283.72;;;3.58;66.73
39613;BME280;25303;48.896;13.342;2023-04-09T03:34:47;93280.66;;;3.53;66.87
39613;BME280;25303;48.896;13.342;2023-04-09T03:37:32;93282.59;;;3.49;66.75
39613;BME280;25303;48.896;13.342;2023-04-09T03:40:17;93276.91;;;3.45;67.10
39613;BME280;25303;48.896;13.342;2023-04-09T03:43:00;93290.44;;;3.46;66.92
39613;BME280;25303;48.896;13.342;2023-04-09T03:45:48;93295.44;;;3.47;67.15
39613;BME280;25303;48.896;13.342;2023-04-09T03:48:37;93286.97;;;3.47;67.13
39613;BME280;25303;48.896;13.342;2023-04-09T03:51:20;93295.34;;;3.49;67.04
39613;BME280;25303;48.896;13.342;2023-04-09T03:54:08;93288.59;;;3.48;66.92
39613;BME280;25303;48.896;13.342;2023-04-09T03:56:54;93290.94;;;3.51;67.15
39613;BME280;25303;48.896;13.342;2023-04-09T03:59:38;93292.59;;;3.52;67.12
39613;BME280;25303;48.896;13.342;2023-04-09T04:02:22;93283.31;;;3.51;67.25
39613;BME280;25303;48.896;13.342;2023-04-09T04:05:13;93288.22;;;3.54;67.24
39613;BME280;25303;48.896;13.342;2023-04-09T04:08:01;93289.00;;;3.55;67.27
39613;BME280;25303;48.896;13.342;2023-04-09T04:10:44;93282.41;;;3.52;67.46
39613;BME280;25303;48.896;13.342;2023-04-09T04:13:31;93289.00;;;3.55;67.40
39613;BME280;25303;48.896;13.342;2023-04-09T04:16:18;93299.31;;;3.53;67.65
39613;BME280;25303;48.896;13.342;2023-04-09T04:19:02;93292.38;;;3.55;67.55
39613;BME280;25303;48.896;13.342;2023-04-09T04:21:48;93289.59;;;3.58;67.34
39613;BME280;25303;48.896;13.342;2023-04-09T04:24:31;93294.50;;;3.61;67.49
39613;BME280;25303;48.896;13.342;2023-04-09T04:27:15;93290.13;;;3.63;67.81
39613;BME280;25303;48.896;13.342;2023-04-09T04:29:59;93294.09;;;3.68;67.34
39613;BME280;25303;48.896;13.342;2023-04-09T04:32:54;93290.63;;;3.69;67.57
39613;BME280;25303;48.896;13.342;2023-04-09T04:35:39;93287.06;;;3.71;67.51
39613;BME280;25303;48.896;13.342;2023-04-09T04:38:28;93293.66;;;3.74;67.51
39613;BME280;25303;48.896;13.342;2023-04-09T04:41:14;93296.00;;;3.77;67.37
39613;BME280;25303;48.896;13.342;2023-04-09T04:44:04;93307.09;;;3.76;67.45
39613;BME280;25303;48.896;13.342;2023-04-09T04:46:48;93296.91;;;3.76;67.40
39613;BME280;25303;48.896;13.342;2023-04-09T04:49:31;93300.38;;;3.75;67.63
39613;BME280;25303;48.896;13.342;2023-04-09T04:52:17;93301.28;;;3.74;67.34
39613;BME280;25303;48.896;13.342;2023-04-09T04:55:05;93307.31;;;3.73;67.57
39613;BME280;25303;48.896;13.342;2023-04-09T04:57:49;93302.22;;;3.73;67.96
39613;BME280;25303;48.896;13.342;2023-04-09T05:00:35;93308.00;;;3.75;67.74
39613;BME280;25303;48.896;13.342;2023-04-09T05:03:19;93303.03;;;3.73;67.73
39613;BME280;25303;48.896;13.342;2023-04-09T05:06:20;93304.88;;;3.71;67.86
39613;BME280;25303;48.896;13.342;2023-04-09T05:09:03;93298.06;;;3.72;67.89
39613;BME280;25303;48.896;13.342;2023-04-09T05:11:55;93299.66;;;3.73;67.96
39613;BME280;25303;48.896;13.342;2023-04-09T05:14:39;93296.13;;;3.75;68.06
39613;BME280;25303;48.896;13.342;2023-04-09T05:17:22;93305.28;;;3.78;68.14
39613;BME280;25303;48.896;13.342;2023-04-09T05:20:10;93306.81;;;3.80;68.13
39613;BME280;25303;48.896;13.342;2023-04-09T05:23:02;93294.75;;;3.83;68.07
39613;BME280;25303;48.896;13.342;2023-04-09T05:25:51;93288.88;;;3.82;68.23
39613;BME280;25303;48.896;13.342;2023-04-09T05:28:48;93299.97;;;3.81;68.35
39613;BME280;25303;48.896;13.342;2023-04-09T05:31:33;93305.56;;;3.86;68.31
39613;BME280;25303;48.896;13.342;2023-04-09T05:34:20;93302.91;;;3.88;68.20
39613;BME280;25303;48.896;13.342;2023-04-09T05:37:08;93303.63;;;3.90;68.02
39613;BME280;25303;48.896;13.342;2023-04-09T05:39:52;93304.44;;;3.90;68.33
39613;BME280;25303;48.896;13.342;2023-04-09T05:42:35;93297.69;;;3.89;68.32
39613;BME280;25303;48.896;13.342;2023-04-09T05:45:25;93299.13;;;3.93;68.26
39613;BME280;25303;48.896;13.342;2023-04-09T05:48:09;93299.03;;;3.95;68.25
39613;BME280;25303;48.896;13.342;2023-04-09T05:50:53;93297.88;;;3.99;68.13
39613;BME280;25303;48.896;13.342;2023-04-09T05:53:41;93298.72;;;4.00;68.04
39613;BME280;25303;48.896;13.342;2023-04-09T05:56:25;93302.69;;;4.04;68.25
39613;BME280;25303;48.896;13.342;2023-04-09T05:59:11;93314.25;;;4.08;68.22
39613;BME280;25303;48.896;13.342;2023-04-09T06:01:54;93313.25;;;4.10;68.14
39613;BME280;25303;48.896;13.342;2023-04-09T06:04:37;93315.47;;;4.15;68.30
39613;BME280;25303;48.896;13.342;2023-04-09T06:07:20;93311.81;;;4.19;68.34
39613;BME280;25303;48.896;13.342;2023-04-09T06:10:06;93318.41;;;4.22;68.18
39613;BME280;25303;48.896;13.342;2023-04-09T06:12:49;93315.66;;;4.25;68.26
39613;BME280;25303;48.896;13.342;2023-04-09T06:15:32;93320.56;;;4.28;68.22
39613;BME280;25303;48.896;13.342;2023-04-09T06:18:15;93313.63;;;4.30;68.20
39613;BME280;25303;48.896;13.342;2023-04-09T06:21:02;93304.94;;;4.33;68.31
39613;BME280;25303;48.896;13.342;2023-04-09T06:23:45;93305.50;;;4.36;68.11
39613;BME280;25303;48.896;13.342;2023-04-09T06:26:29;93307.97;;;4.38;68.30
39613;BME280;25303;48.896;13.342;2023-04-09T06:29:12;93314.59;;;4.40;68.29
39613;BME280;25303;48.896;13.342;2023-04-09T06:31:55;93318.56;;;4.45;68.36
39613;BME280;25303;48.896;13.342;2023-04-09T06:34:38;93333.72;;;4.46;68.14
39613;BME280;25303;48.896;13.342;2023-04-09T06:37:21;93328.63;;;4.46;67.99
39613;BME280;25303;48.896;13.342;2023-04-09T06:40:05;93325.28;;;4.46;67.73
39613;BME280;25303;48.896;13.342;2023-04-09T06:42:49;93323.41;;;4.48;68.02
39613;BME280;25303;48.896;13.342;2023-04-09T06:45:41;93327.97;;;4.55;68.24
39613;BME280;25303;48.896;13.342;2023-04-09T06:48:24;93338.44;;;4.64;68.32
39613;BME280;25303;48.896;13.342;2023-04-09T06:51:07;93336.69;;;4.64;67.98
39613;BME280;25303;48.896;13.342;2023-04-09T06:53:50;93336.63;;;4.66;68.04
39613;BME280;25303;48.896;13.342;2023-04-09T06:56:33;93341.59;;;4.67;68.04
39613;BME280;25303;48.896;13.342;2023-04-09T06:59:18;93334.66;;;4.69;67.97
39613;BME280;25303;48.896;13.342;2023-04-09T07:02:00;93340.47;;;4.71;67.83
39613;BME280;25303;48.896;13.342;2023-04-09T07:04:44;93345.34;;;4.75;67.77
39613;BME280;25303;48.896;13.342;2023-04-09T07:07:28;93355.56;;;4.75;67.60
39613;BME280;25303;48.896;13.342;2023-04-09T07:10:11;93356.47;;;4.74;67.58
39613;BME280;25303;48.896;13.342;2023-04-09T07:12:54;93348.81;;;4.74;67.78
39613;BME280;25303;48.896;13.342;2023-04-09T07:15:38;93353.72;;;4.77;67.41
39613;BME280;25303;48.896;13.342;2023-04-09T07:18:23;93361.94;;;4.80;67.83
39613;BME280;25303;48.896;13.342;2023-04-09T07:21:06;93370.19;;;4.84;67.89
39613;BME280;25303;48.896;13.342;2023-04-09T07:23:49;93368.25;;;4.88;68.02
39613;BME280;25303;48.896;13.342;2023-04-09T07:26:32;93366.28;;;4.91;67.92
39613;BME280;25303;48.896;13.342;2023-04-09T07:29:15;93375.13;;;4.98;68.12
39613;BME280;25303;48.896;13.342;2023-04-09T07:31:59;93374.34;;;5.09;68.33
39613;BME280;25303;48.896;13.342;2023-04-09T07:34:44;93373.78;;;5.17;67.92
39613;BME280;25303;48.896;13.342;2023-04-09T07:37:27;93376.00;;;5.22;67.78
39613;BME280;25303;48.896;13.342;2023-04-09T07:40:10;93375.78;;;5.25;67.63
39613;BME280;25303;48.896;13.342;2023-04-09T07:42:53;93373.84;;;5.28;67.57
39613;BME280;25303;48.896;13.342;2023-04-09T07:45:36;93377.41;;;5.26;67.36
39613;BME280;25303;48.896;13.342;2023-04-09T07:48:21;93377.63;;;5.23;67.33
39613;BME280;25303;48.896;13.342;2023-04-09T07:51:03;93377.53;;;5.24;67.50
39613;BME280;25303;48.896;13.342;2023-04-09T07:53:46;93375.78;;;5.25;67.75
39613;BME280;25303;48.896;13.342;2023-04-09T07:56:29;93376.50;;;5.27;67.74
39613;BME280;25303;48.896;13.342;2023-04-09T07:59:12;93386.63;;;5.28;67.69
39613;BME280;25303;48.896;13.342;2023-04-09T08:01:56;93378.03;;;5.29;67.62
39613;BME280;25303;48.896;13.342;2023-04-09T08:04:40;93387.19;;;5.32;67.58
39613;BME280;25303;48.896;13.342;2023-04-09T08:07:23;93387.06;;;5.33;67.66
39613;BME280;25303;48.896;13.342;2023-04-09T08:10:07;93381.75;;;5.37;67.74
39613;BME280;25303;48.896;13.342;2023-04-09T08:12:56;93379.78;;;5.40;67.68
39613;BME280;25303;48.896;13.342;2023-04-09T08:15:38;93383.16;;;5.41;67.27
39613;BME280;25303;48.896;13.342;2023-04-09T08:18:22;93387.22;;;5.43;67.54
39613;BME280;25303;48.896;13.342;2023-04-09T08:21:06;93390.25;;;5.48;67.62
39613;BME280;25303;48.896;13.342;2023-04-09T08:23:49;93394.91;;;5.55;67.88
39613;BME280;25303;48.896;13.342;2023-04-09T08:26:32;93392.03;;;5.59;67.50
39613;BME280;25303;48.896;13.342;2023-04-09T08:29:15;93389.34;;;5.61;66.71
39613;BME280;25303;48.896;13.342;2023-04-09T08:31:58;93396.09;;;5.62;66.36
39613;BME280;25303;48.896;13.342;2023-04-09T08:34:41;93397.00;;;5.61;66.29
39613;BME280;25303;48.896;13.342;2023-04-09T08:37:25;93393.31;;;5.65;66.48
39613;BME280;25303;48.896;13.342;2023-04-09T08:40:08;93381.03;;;5.70;66.46
39613;BME280;25303;48.896;13.342;2023-04-09T08:42:54;93393.22;;;5.78;66.73
39613;BME280;25303;48.896;13.342;2023-04-09T08:45:39;93393.66;;;5.83;66.43
39613;BME280;25303;48.896;13.342;2023-04-09T08:48:23;93394.72;;;5.92;66.76
39613;BME280;25303;48.896;13.342;2023-04-09T08:51:06;93396.13;;;5.96;66.22
39613;BME280;25303;48.896;13.342;2023-04-09T08:53:54;93393.56;;;5.96;66.20
39613;BME280;25303;48.896;13.342;2023-04-09T08:56:37;93398.47;;;5.99;66.20
39613;BME280;25303;48.896;13.342;2023-04-09T08:59:20;93394.63;;;5.93;65.35
39613;BME280;25303;48.896;13.342;2023-04-09T09:02:07;93397.56;;;6.00;64.94
39613;BME280;25303;48.896;13.342;2023-04-09T09:04:50;93399.63;;;5.95;64.28
39613;BME280;25303;48.896;13.342;2023-04-09T09:07:35;93393.81;;;5.93;64.02
39613;BME280;25303;48.896;13.342;2023-04-09T09:10:19;93401.84;;;6.00;64.16
39613;BME280;25303;48.896;13.342;2023-04-09T09:13:15;93399.75;;;6.05;63.33
39613;BME280;25303;48.896;13.342;2023-04-09T09:16:11;93408.00;;;6.08;63.25
39613;BME280;25303;48.896;13.342;2023-04-09T09:18:54;93403.13;;;6.05;62.92
39613;BME280;25303;48.896;13.342;2023-04-09T09:21:38;93403.13;;;6.05;63.28
39613;BME280;25303;48.896;13.342;2023-04-09T09:24:21;93408.84;;;6.09;63.67
39613;BME280;25303;48.896;13.342;2023-04-09T09:27:05;93409.88;;;6.18;64.02
39613;BME280;25303;48.896;13.342;2023-04-09T09:29:48;93411.97;;;6.13;63.45
39613;BME280;25303;48.896;13.342;2023-04-09T09:32:31;93411.75;;;6.16;63.02
39613;BME280;25303;48.896;13.342;2023-04-09T09:35:14;93405.22;;;6.23;63.21
39613;BME280;25303;48.896;13.342;2023-04-09T09:38:01;93406.63;;;6.27;63.17
39613;BME280;25303;48.896;13.342;2023-04-09T09:40:46;93400.13;;;6.34;63.19
39613;BME280;25303;48.896;13.342;2023-04-09T09:43:39;93403.94;;;6.40;63.05
39613;BME280;25303;48.896;13.342;2023-04-09T09:46:24;93403.72;;;6.43;62.98
39613;BME280;25303;48.896;13.342;2023-04-09T09:49:08;93408.56;;;6.46;63.18
39613;BME280;25303;48.896;13.342;2023-04-09T09:51:52;93407.06;;;6.44;62.59
39613;BME280;25303;48.896;13.342;2023-04-09T09:54:39;93406.16;;;6.45;62.84
39613;BME280;25303;48.896;13.342;2023-04-09T09:57:24;93408.47;;;6.48;62.76
39613;BME280;25303;48.896;13.342;2023-04-09T10:00:11;93412.88;;;6.46;62.65
39613;BME280;25303;48.896;13.342;2023-04-09T10:02:58;93410.47;;;6.44;62.49
39613;BME280;25303;48.896;13.342;2023-04-09T10:05:41;93415.91;;;6.39;62.37
39613;BME280;25303;48.896;13.342;2023-04-09T10:08:24;93409.28;;;6.37;61.88
39613;BME280;25303;48.896;13.342;2023-04-09T10:11:09;93408.22;;;6.39;62.20
39613;BME280;25303;48.896;13.342;2023-04-09T10:13:55;93410.09;;;6.37;62.08
39613;BME280;25303;48.896;13.342;2023-04-09T10:16:40;93413.34;;;6.39;61.92
39613;BME280;25303;48.896;13.342;2023-04-09T10:19:23;93405.44;;;6.43;61.82
39613;BME280;25303;48.896;13.342;2023-04-09T10:22:09;93411.25;;;6.45;61.64
39613;BME280;25303;48.896;13.342;2023-04-09T10:24:53;93424.19;;;6.43;61.29
39613;BME280;25303;48.896;13.342;2023-04-09T10:27:36;93414.03;;;6.42;61.19
39613;BME280;25303;48.896;13.342;2023-04-09T10:30:30;93415.69;;;6.43;60.90
39613;BME280;25303;48.896;13.342;2023-04-09T10:33:16;93412.09;;;6.45;61.27
39613;BME280;25303;48.896;13.342;2023-04-09T10:36:09;93415.31;;;6.47;61.13
39613;BME280;25303;48.896;13.342;2023-04-09T10:38:54;93418.22;;;6.54;61.25
39613;BME280;25303;48.896;13.342;2023-04-09T10:41:37;93414.25;;;6.61;61.50
39613;BME280;25303;48.896;13.342;2023-04-09T10:44:21;93411.94;;;6.69;61.68
39613;BME280;25303;48.896;13.342;2023-04-09T10:47:04;93414.50;;;6.69;61.17
39613;BME280;25303;48.896;13.342;2023-04-09T10:49:48;93413.19;;;6.75;61.20
39613;BME280;25303;48.896;13.342;2023-04-09T10:52:31;93406.88;;;6.79;61.52
39613;BME280;25303;48.896;13.342;2023-04-09T10:55:35;93400.38;;;6.87;61.17
39613;BME280;25303;48.896;13.342;2023-04-09T10:58:19;93407.56;;;6.93;61.38
39613;BME280;25303;48.896;13.342;2023-04-09T11:01:02;93405.59;;;6.96;61.09
39613;BME280;25303;48.896;13.342;2023-04-09T11:03:45;93397.22;;;6.94;60.99
39613;BME280;25303;48.896;13.342;2023-04-09T11:06:51;93406.66;;;6.94;60.43
39613;BME280;25303;48.896;13.342;2023-04-09T11:09:34;93408.41;;;6.82;60.33
39613;BME280;25303;48.896;13.342;2023-04-09T11:12:17;93406.66;;;6.82;60.07
39613;BME280;25303;48.896;13.342;2023-04-09T11:15:00;93411.16;;;6.90;60.54
39613;BME280;25303;48.896;13.342;2023-04-09T11:17:43;93406.66;;;6.94;60.62
39613;BME280;25303;48.896;13.342;2023-04-09T11:20:27;93395.22;;;6.98;60.72
39613;BME280;25303;48.896;13.342;2023-04-09T11:23:14;93395.34;;;6.96;60.42
39613;BME280;25303;48.896;13.342;2023-04-09T11:25:57;93400.78;;;7.03;60.70
39613;BME280;25303;48.896;13.342;2023-04-09T11:28:41;93399.72;;;7.06;60.63
39613;BME280;25303;48.896;13.342;2023-04-09T11:31:27;93397.06;;;7.07;60.37
39613;BME280;25303;48.896;13.342;2023-04-09T11:34:10;93400.66;;;7.05;60.07
39613;BME280;25303;48.896;13.342;2023-04-09T11:36:53;93404.03;;;7.05;59.96
39613;BME280;25303;48.896;13.342;2023-04-09T11:39:38;93399.38;;;7.10;60.27
39613;BME280;25303;48.896;13.342;2023-04-09T11:42:21;93393.06;;;7.14;60.16
39613;BME280;25303;48.896;13.342;2023-04-09T11:45:07;93396.88;;;7.20;60.13
39613;BME280;25303;48.896;13.342;2023-04-09T11:47:51;93404.22;;;7.25;60.03
39613;BME280;25303;48.896;13.342;2023-04-09T11:50:35;93410.97;;;7.26;59.96
39613;BME280;25303;48.896;13.342;2023-04-09T11:53:18;93414.44;;;7.25;59.86
39613;BME280;25303;48.896;13.342;2023-04-09T11:56:03;93409.19;;;7.26;59.78
39613;BME280;25303;48.896;13.342;2023-04-09T11:58:47;93414.31;;;7.26;59.08
39613;BME280;25303;48.896;13.342;2023-04-09T12:01:31;93413.94;;;7.31;59.59
39613;BME280;25303;48.896;13.342;2023-04-09T12:04:18;93420.59;;;7.34;59.67
39613;BME280;25303;48.896;13.342;2023-04-09T12:07:02;93412.63;;;7.37;59.59
39613;BME280;25303;48.896;13.342;2023-04-09T12:09:49;93409.84;;;7.40;59.71
39613;BME280;25303;48.896;13.342;2023-04-09T12:12:40;93412.16;;;7.43;59.40
39613;BME280;25303;48.896;13.342;2023-04-09T12:15:24;93413.41;;;7.49;59.52
39613;BME280;25303;48.896;13.342;2023-04-09T12:18:09;93413.03;;;7.53;59.37
39613;BME280;25303;48.896;13.342;2023-04-09T12:20:52;93415.34;;;7.56;59.29
39613;BME280;25303;48.896;13.342;2023-04-09T12:23:34;93416.59;;;7.62;59.07
39613;BME280;25303;48.896;13.342;2023-04-09T12:26:17;93412.03;;;7.66;58.55
39613;BME280;25303;48.896;13.342;2023-04-09T12:29:01;93407.78;;;7.76;58.86
39613;BME280;25303;48.896;13.342;2023-04-09T12:31:45;93418.91;;;7.86;58.60
39613;BME280;25303;48.896;13.342;2023-04-09T12:34:28;93419.22;;;7.93;57.93
39613;BME280;25303;48.896;13.342;2023-04-09T12:37:11;93416.38;;;7.96;57.82
39613;BME280;25303;48.896;13.342;2023-04-09T12:39:54;93415.19;;;8.00;57.77
39613;BME280;25303;48.896;13.342;2023-04-09T12:42:37;93418.31;;;8.04;57.66
39613;BME280;25303;48.896;13.342;2023-04-09T12:45:21;93414.97;;;8.03;57.04
39613;BME280;25303;48.896;13.342;2023-04-09T12:48:04;93412.78;;;7.99;56.82
39613;BME280;25303;48.896;13.342;2023-04-09T12:50:47;93411.16;;;7.98;56.62
39613;BME280;25303;48.896;13.342;2023-04-09T12:53:30;93414.41;;;8.00;57.10
39613;BME280;25303;48.896;13.342;2023-04-09T12:56:13;93411.56;;;8.03;57.00
39613;BME280;25303;48.896;13.342;2023-04-09T12:58:56;93411.56;;;8.03;56.84
39613;BME280;25303;48.896;13.342;2023-04-09T13:01:40;93416.28;;;7.98;56.19
39613;BME280;25303;48.896;13.342;2023-04-09T13:04:24;93410.59;;;7.94;56.16
39613;BME280;25303;48.896;13.342;2023-04-09T13:07:08;93409.78;;;7.94;56.35
39613;BME280;25303;48.896;13.342;2023-04-09T13:09:52;93407.22;;;7.94;56.46
39613;BME280;25303;48.896;13.342;2023-04-09T13:12:35;93408.97;;;7.93;56.40
39613;BME280;25303;48.896;13.342;2023-04-09T13:15:19;93408.16;;;7.93;55.77
39613;BME280;25303;48.896;13.342;2023-04-09T13:18:04;93409.09;;;7.91;55.84
39613;BME280;25303;48.896;13.342;2023-04-09T13:20:47;93417.31;;;7.95;56.08
39613;BME280;25303;48.896;13.342;2023-04-09T13:23:30;93414.28;;;8.01;56.16
39613;BME280;25303;48.896;13.342;2023-04-09T13:26:13;93417.97;;;8.09;56.28
39613;BME280;25303;48.896;13.342;2023-04-09T13:28:56;93420.69;;;8.17;56.37
39613;BME280;25303;48.896;13.342;2023-04-09T13:31:39;93414.81;;;8.26;56.42
39613;BME280;25303;48.896;13.342;2023-04-09T13:34:23;93415.78;;;8.35;56.33
39613;BME280;25303;48.896;13.342;2023-04-09T13:37:06;93413.88;;;8.37;55.29
39613;BME280;25303;48.896;13.342;2023-04-09T13:39:49;93418.75;;;8.40;55.79
39613;BME280;25303;48.896;13.342;2023-04-09T13:42:32;93418.66;;;8.42;55.81
39613;BME280;25303;48.896;13.342;2023-04-09T13:45:23;93417.56;;;8.44;55.50
39613;BME280;25303;48.896;13.342;2023-04-09T13:48:06;93410.00;;;8.43;55.33
39613;BME280;25303;48.896;13.342;2023-04-09T13:50:49;93414.81;;;8.36;55.04
39613;BME280;25303;48.896;13.342;2023-04-09T13:53:32;93407.13;;;8.36;55.18
39613;BME280;25303;48.896;13.342;2023-04-09T13:56:15;93407.13;;;8.36;54.85
39613;BME280;25303;48.896;13.342;2023-04-09T13:58:58;93410.50;;;8.36;55.08
39613;BME280;25303;48.896;13.342;2023-04-09T14:01:42;93406.88;;;8.39;55.14
39613;BME280;25303;48.896;13.342;2023-04-09T14:04:25;93404.88;;;8.43;55.43
39613;BME280;25303;48.896;13.342;2023-04-09T14:07:08;93407.28;;;8.44;55.34
39613;BME280;25303;48.896;13.342;2023-04-09T14:09:51;93408.69;;;8.48;55.37
39613;BME280;25303;48.896;13.342;2023-04-09T14:12:34;93400.75;;;8.51;55.50
39613;BME280;25303;48.896;13.342;2023-04-09T14:15:17;93399.53;;;8.56;55.13
39613;BME280;25303;48.896;13.342;2023-04-09T14:18:01;93399.94;;;8.61;55.19
39613;BME280;25303;48.896;13.342;2023-04-09T14:20:44;93395.94;;;8.68;55.14
39613;BME280;25303;48.896;13.342;2023-04-09T14:23:27;93394.72;;;8.82;54.99
39613;BME280;25303;48.896;13.342;2023-04-09T14:26:10;93387.72;;;8.94;54.92
39613;BME280;25303;48.896;13.342;2023-04-09T14:28:53;93390.72;;;9.09;54.81
39613;BME280;25303;48.896;13.342;2023-04-09T14:31:36;93388.69;;;9.22;54.14